Flight Track Log - Related Links

Times and Time Zones

All times are in EDT time to prevent confusion due to time zone crossing. See the N960DL flight status page for this flight to view local times or setup timezone preferences in your user account.


Time Position Orientation Groundspeed Altitude Reporting Facility
EDT Latitude Longitude Course Direction KTS MPH feet Rate Location/Type
Sun 08:45:41 PM 42.2356 -83.3289 North 157 181 1,600  Level Cleveland Center
Sun 08:47:06 PM 42.3236 -83.3131 North 265 305 3,600 1,800 Climbing Cleveland Center
Sun 08:48:01 PM 42.3928 -83.2906 14° North 292 336 5,800 2,483 Climbing Cleveland Center
Sun 08:49:02 PM 42.4722 -83.2856 North 300 345 8,400 2,526 Climbing Cleveland Center
Sun 08:49:55 PM 42.5469 -83.2972 353° North 308 354 10,600 2,071 Climbing Cleveland Center
Sun 08:50:55 PM 42.6300 -83.3150 351° North 351 404 12,300 1,200 Climbing Cleveland Center
Sun 08:51:55 PM 42.7275 -83.3333 352° North 351 404 13,000 1,050 Climbing Cleveland Center
Sun 08:52:55 PM 42.8292 -83.3519 352° North 351 404 14,400 1,300 Climbing Cleveland Center
Sun 08:53:55 PM 42.9414 -83.3711 353° North 372 428 15,600 1,550 Climbing Cleveland Center
Sun 08:54:55 PM 43.0642 -83.3739 359° North 408 470 17,500 2,050 Climbing Cleveland Center
Sun 08:55:55 PM 43.1936 -83.4508 337° Northwest 443 510 19,700 1,750 Climbing Cleveland Center
Sun 08:56:55 PM 43.3106 -83.5275 335° Northwest 455 524 21,000 1,550 Climbing Cleveland Center
Sun 08:57:55 PM 43.4294 -83.6047 335° Northwest 460 529 22,800 1,787 Climbing Cleveland Center
Sun 08:58:29 PM 43.4792 -83.6486 327° Northwest 476 548 23,800 1,938 Climbing Minneapolis Center
Sun 08:59:31 PM 43.5350 -83.8008 297° West 450 518 25,900 1,890 Climbing Minneapolis Center
Sun 09:00:36 PM 43.5836 -83.9894 290° West 439 505 27,800 1,559 Climbing Minneapolis Center
Sun 09:01:38 PM 43.6228 -84.1461 289° West 436 502 29,200 1,065 Climbing Minneapolis Center
Sun 09:02:40 PM 43.6636 -84.3008 290° West 432 497 30,000 387 Climbing Minneapolis Center
Sun 09:03:42 PM 43.7031 -84.4550 290° West 429 494 30,000 194 Level Minneapolis Center
Sun 09:04:44 PM 43.7414 -84.6111 289° West 430 495 30,400 480 Climbing Minneapolis Center
Sun 09:05:47 PM 43.7883 -84.8014 289° West 436 502 31,000 1,104 Climbing Minneapolis Center
Sun 09:06:49 PM 43.8272 -84.9589 289° West 436 502 32,700 1,161 Climbing Minneapolis Center
Sun 09:07:51 PM 43.8633 -85.1114 288° West 424 488 33,400 581 Climbing Minneapolis Center
Sun 09:08:53 PM 43.9003 -85.2639 289° West 420 483 33,900 290 Climbing Minneapolis Center
Sun 09:09:55 PM 43.9381 -85.4186 289° West 423 487 34,000 48 Climbing Minneapolis Center
Sun 09:10:57 PM 43.9744 -85.5725 288° West 424 488 34,000  Level Minneapolis Center
Sun 09:11:59 PM 44.0175 -85.7567 288° West 423 487 34,000  Level Minneapolis Center
Sun 09:13:01 PM 44.0544 -85.9106 289° West 422 486 34,000  Level Minneapolis Center
Sun 09:14:03 PM 44.0900 -86.0669 288° West 426 490 34,000  Level Minneapolis Center
Sun 09:15:05 PM 44.1278 -86.2292 288° West 428 493 34,000  Level Minneapolis Center
Sun 09:16:07 PM 44.1644 -86.3878 288° West 428 493 34,000  Level Minneapolis Center
Sun 09:17:09 PM 44.2003 -86.5450 288° West 426 490 34,000 -145 Level Minneapolis Center
Sun 09:18:11 PM 44.2422 -86.7358 287° West 428 493 33,700 -968 Descending Minneapolis Center
Sun 09:19:13 PM 44.2767 -86.8969 287° West 431 496 32,000 -823 Descending Minneapolis Center
Sun 09:20:15 PM 44.3122 -87.0578 287° West 434 499 32,000  Level Minneapolis Center
Sun 09:21:17 PM 44.3475 -87.2161 287° West 433 498 32,000  Level Minneapolis Center
Sun 09:22:19 PM 44.3825 -87.3775 287° West 435 501 32,000  Level Minneapolis Center
Sun 09:23:21 PM 44.4244 -87.5703 287° West 444 511 32,000  Level Minneapolis Center
Sun 09:24:23 PM 44.4589 -87.7333 287° West 441 507 32,000  Level Minneapolis Center
Sun 09:25:24 PM 44.4964 -87.9069 287° West 442 509 32,000  Level Minneapolis Center
Sun 09:26:26 PM 44.5286 -88.0606 286° West 439 505 32,000  Level Minneapolis Center
Sun 09:27:28 PM 44.5611 -88.2261 285° West 441 507 32,000  Level Minneapolis Center
Sun 09:28:30 PM 44.5836 -88.4211 279° West 435 501 32,000  Level Minneapolis Center
Sun 09:29:32 PM 44.6033 -88.5872 280° West 433 498 32,000  Level Minneapolis Center
Sun 09:30:34 PM 44.6219 -88.7553 279° West 435 501 32,000  Level Minneapolis Center
Sun 09:31:35 PM 44.6403 -88.9244 279° West 437 503 32,000  Level Minneapolis Center
Sun 09:32:37 PM 44.6586 -89.0919 279° West 436 502 32,000  Level Minneapolis Center
Sun 09:33:39 PM 44.6775 -89.2606 279° West 437 503 32,000  Level Minneapolis Center
Sun 09:34:40 PM 44.6989 -89.4575 279° West 438 504 32,000  Level Minneapolis Center
Sun 09:35:42 PM 44.7167 -89.6264 278° West 438 504 32,000  Level Minneapolis Center
Sun 09:36:44 PM 44.7342 -89.7942 278° West 435 501 32,000  Level Minneapolis Center
Sun 09:37:45 PM 44.7519 -89.9631 278° West 438 504 32,000  Level Minneapolis Center
Sun 09:38:47 PM 44.7703 -90.1306 279° West 434 499 32,000  Level Minneapolis Center
Sun 09:39:48 PM 44.7872 -90.2989 278° West 434 499 32,000  Level Minneapolis Center
Sun 09:40:50 PM 44.8028 -90.4664 278° West 433 498 32,000  Level Minneapolis Center
Sun 09:41:51 PM 44.8200 -90.6381 278° West 430 495 32,000  Level Minneapolis Center
Sun 09:42:53 PM 44.8450 -90.8094 282° West 433 498 32,000 -871 Level Minneapolis Center
Sun 09:43:55 PM 44.8733 -91.0028 282° West 432 497 30,200 -2,537 Descending Minneapolis Center
Sun 09:44:56 PM 44.8944 -91.1689 280° West 432 497 26,800 -2,927 Descending Minneapolis Center
Sun 09:45:58 PM 44.9181 -91.3367 281° West 437 503 24,200 -2,488 Descending Minneapolis Center
Sun 09:46:59 PM 44.9422 -91.4989 282° West 430 495 21,700 -2,439 Descending Minneapolis Center
Sun 09:48:01 PM 44.9633 -91.6572 281° West 419 482 19,200 -2,390 Descending Minneapolis Center
Sun 09:49:02 PM 44.9839 -91.8111 281° West 410 472 16,800 -2,293 Descending Minneapolis Center
Sun 09:50:04 PM 45.0067 -91.9631 282° West 396 456 14,500 -2,146 Descending Minneapolis Center
Sun 09:51:05 PM 45.0244 -92.1075 280° West 377 434 12,400 -1,707 Descending Minneapolis Center
Sun 09:52:07 PM 45.0450 -92.2750 280° West 364 419 11,000 -683 Descending Minneapolis Center
Sun 09:53:08 PM 45.0275 -92.4114 260° West 358 412 11,000  Level Minneapolis Center
Sun 09:54:10 PM 45.0067 -92.5475 258° West 358 412 11,000  Level Minneapolis Center
Sun 09:55:11 PM 44.9856 -92.6819 258° West 354 407 11,000  Level Minneapolis Center
Sun 09:56:13 PM 44.9642 -92.8150 257° West 350 403 11,000 -439 Level Minneapolis Center
Sun 09:57:14 PM 44.9447 -92.9308 257° West 307 353 10,100 -1,317 Descending Minneapolis Center
Sun 09:58:16 PM 44.9261 -93.0625 259° West 290 334 8,300 -1,171 Descending Minneapolis Center
Sun 09:59:17 PM 44.9614 -93.1514 299° West 259 298 7,700 -984 Descending Minneapolis Center
Sun 10:00:18 PM 45.0003 -93.2286 305° West 245 282 6,300 -1,366 Descending Minneapolis Center
Sun 10:01:20 PM 45.0389 -93.3042 306° West 240 276 4,900 -1,122 Descending Minneapolis Center
Sun 10:02:21 PM 45.0767 -93.3783 306° West 236 272 4,000 -439 Descending Minneapolis Center
Sun 10:03:23 PM 45.0833 -93.4600 277° West 209 241 4,000  Level Minneapolis Center
Sun 10:04:24 PM 45.0358 -93.4850 200° South 194 223 4,000 49 Level Minneapolis Center
Sun 10:05:26 PM 44.9858 -93.4356 145° Southeast 195 224 4,100 97 Climbing Minneapolis Center

Login

Don't have an account? Register now (free) for customized features, flight alerts, and more!